Nevinnomyssk, Russia
Current Conditions -  °F | °C
As of 10:30 PM on Monday 22 Dec 2014 (Local Time) from URMT Reporting Station
Broken Clouds Broken Clouds  
Wind Chill: 19°   Ceiling: 2800
Heat Index: 30°   Visibility: 6mi
Dew Point: 27°   Wind: 16mph
Humidity: 86%   Direction: 280°W
Pressure: 30.03"   Gusts: 25mph
Location:  44.63°N, 41.95°E
Report Text: URMT 221930Z 28007G11MPS 9999 BKN028 M01/M03 Q1017 NOSIG RMKQFE724 SC060
Loading
Personal Weather Stations






























Interactive Weather Map New forecast layout! Learn more

10-Day Weather Forecast

Advertisements
Track Severe Weather on mobile